Time;durP1;ratioP1;P1;durP2;ratioP2;P2;SDS_P1;SDS_P2;PMS_P1;PMS_P2;Temp;Humidity;BMP_temperature;BMP_pressure;BME280_temperature;BME280_humidity;BME280_pressure;Samples;Min_cycle;Max_cycle;Signal;HPM_P1;HPM_P2
2023/12/05 00:00:24;;;;;;;30.83;17.65;;;;;;;;;;5045345;28;20520;-67
2023/12/05 00:02:52;;;;;;;30.70;17.52;;;;;;;;;;5045607;28;20462;-67
2023/12/05 00:05:19;;;;;;;29.33;17.23;;;;;;;;;;5047904;28;20428;-67
2023/12/05 00:07:50;;;;;;;32.35;18.13;;;;;;;;;;5043447;28;21472;-67
2023/12/05 00:10:20;;;;;;;30.73;17.98;;;;;;;;;;5041940;28;20439;-67
2023/12/05 00:12:48;;;;;;;29.75;17.58;;;;;;;;;;5051212;28;20487;-66
2023/12/05 00:15:15;;;;;;;31.88;17.33;;;;;;;;;;5046223;28;20499;-66
2023/12/05 00:17:42;;;;;;;30.00;17.10;;;;;;;;;;5040866;28;20428;-66
2023/12/05 00:20:10;;;;;;;29.80;18.13;;;;;;;;;;5051236;28;20452;-66
2023/12/05 00:22:37;;;;;;;30.17;17.50;;;;;;;;;;5050886;28;20474;-66
2023/12/05 00:25:05;;;;;;;33.47;19.50;;;;;;;;;;5048182;28;20439;-66
2023/12/05 00:27:34;;;;;;;35.47;19.33;;;;;;;;;;5027584;28;20431;-66
2023/12/05 00:30:08;;;;;;;33.00;18.63;;;;;;;;;;5038861;28;20438;-66
2023/12/05 00:32:38;;;;;;;35.17;18.77;;;;;;;;;;5033465;28;20460;-67
2023/12/05 00:35:06;;;;;;;34.13;18.65;;;;;;;;;;5052905;28;20472;-67
2023/12/05 00:37:35;;;;;;;32.63;18.70;;;;;;;;;;5048852;28;20507;-66
2023/12/05 00:40:04;;;;;;;31.20;18.85;;;;;;;;;;5031039;28;20437;-66
2023/12/05 00:42:31;;;;;;;29.58;18.65;;;;;;;;;;5050103;28;20487;-66
2023/12/05 00:45:01;;;;;;;30.75;18.55;;;;;;;;;;5069203;28;20921;-66
2023/12/05 00:47:29;;;;;;;30.98;17.88;;;;;;;;;;5064651;28;20412;-66
2023/12/05 00:49:56;;;;;;;34.60;18.98;;;;;;;;;;5048503;28;20482;-65
2023/12/05 00:52:25;;;;;;;31.27;18.65;;;;;;;;;;5056129;28;20429;-63
2023/12/05 00:54:52;;;;;;;36.45;19.40;;;;;;;;;;5053896;28;20435;-63
2023/12/05 00:57:20;;;;;;;35.90;19.27;;;;;;;;;;5061983;28;20437;-63
2023/12/05 00:59:53;;;;;;;33.10;19.25;;;;;;;;;;5052269;28;20956;-64
2023/12/05 01:02:21;;;;;;;37.08;19.60;;;;;;;;;;5045464;28;20844;-63
2023/12/05 01:04:48;;;;;;;33.80;19.60;;;;;;;;;;5069759;28;20461;-63
2023/12/05 01:07:15;;;;;;;35.15;19.27;;;;;;;;;;5069854;28;20423;-64
2023/12/05 01:09:43;;;;;;;35.65;19.50;;;;;;;;;;5048342;28;20838;-65
2023/12/05 01:12:11;;;;;;;35.70;20.17;;;;;;;;;;5046938;28;20514;-66
2023/12/05 01:14:38;;;;;;;37.95;20.20;;;;;;;;;;5048722;28;20429;-66
2023/12/05 01:17:06;;;;;;;34.78;19.33;;;;;;;;;;5049623;28;20460;-65
2023/12/05 01:19:37;;;;;;;38.03;20.15;;;;;;;;;;5057257;28;20431;-65
2023/12/05 01:22:05;;;;;;;34.70;19.10;;;;;;;;;;5054082;28;20426;-64
2023/12/05 01:24:32;;;;;;;34.72;19.92;;;;;;;;;;5048322;28;20425;-64
2023/12/05 01:26:59;;;;;;;34.42;19.10;;;;;;;;;;5024520;28;20427;-64
2023/12/05 01:29:27;;;;;;;33.90;18.77;;;;;;;;;;5044980;28;20453;-64
2023/12/05 01:32:03;;;;;;;32.75;19.60;;;;;;;;;;5056609;28;20809;-64
2023/12/05 01:34:30;;;;;;;32.78;19.13;;;;;;;;;;5047074;28;21222;-64
2023/12/05 01:36:58;;;;;;;33.83;19.88;;;;;;;;;;5024548;28;20528;-63
2023/12/05 01:39:25;;;;;;;36.95;19.52;;;;;;;;;;5051357;28;20839;-63
2023/12/05 01:41:55;;;;;;;33.83;19.52;;;;;;;;;;5040838;28;20511;-63
2023/12/05 01:44:25;;;;;;;34.50;19.20;;;;;;;;;;5048119;28;20457;-63
2023/12/05 01:46:52;;;;;;;36.78;19.70;;;;;;;;;;5060165;28;20450;-62
2023/12/05 01:49:20;;;;;;;35.05;20.05;;;;;;;;;;5059661;28;20447;-62
2023/12/05 01:51:56;;;;;;;34.22;20.00;;;;;;;;;;5048845;28;20437;-63
2023/12/05 01:54:24;;;;;;;32.50;18.48;;;;;;;;;;5038409;28;20490;-62
2023/12/05 01:56:51;;;;;;;34.80;20.07;;;;;;;;;;5051873;28;20784;-62
2023/12/05 01:59:18;;;;;;;35.83;19.75;;;;;;;;;;5050232;28;21164;-62
2023/12/05 02:01:45;;;;;;;33.58;19.08;;;;;;;;;;5058416;28;20505;-62
2023/12/05 02:04:12;;;;;;;34.93;20.37;;;;;;;;;;5047238;28;20433;-62
2023/12/05 02:06:40;;;;;;;32.33;18.60;;;;;;;;;;5040747;28;20468;-62
2023/12/05 02:09:10;;;;;;;34.67;19.70;;;;;;;;;;5044711;28;20427;-62
2023/12/05 02:11:38;;;;;;;34.95;19.67;;;;;;;;;;5054636;28;20485;-62
2023/12/05 02:14:09;;;;;;;32.20;18.13;;;;;;;;;;5063529;28;20504;-62
2023/12/05 02:16:41;;;;;;;31.30;18.90;;;;;;;;;;5046925;28;20638;-62
2023/12/05 02:19:08;;;;;;;33.03;18.88;;;;;;;;;;5045768;28;20494;-62
2023/12/05 02:21:37;;;;;;;33.63;18.97;;;;;;;;;;5064649;28;20522;-62
2023/12/05 02:24:14;;;;;;;33.38;17.98;;;;;;;;;;5047917;28;20429;-62
2023/12/05 02:26:42;;;;;;;31.05;18.55;;;;;;;;;;5055558;28;20765;-62
2023/12/05 02:29:12;;;;;;;32.65;18.75;;;;;;;;;;5046479;28;20426;-61
2023/12/05 02:31:39;;;;;;;28.58;17.73;;;;;;;;;;5053845;28;20437;-61
2023/12/05 02:34:06;;;;;;;30.90;17.13;;;;;;;;;;5054618;28;20458;-61
2023/12/05 02:36:40;;;;;;;28.38;17.13;;;;;;;;;;5041100;28;20508;-61
2023/12/05 02:39:19;;;;;;;32.10;17.45;;;;;;;;;;5054761;28;20504;-61
2023/12/05 02:41:52;;;;;;;31.93;17.53;;;;;;;;;;5038496;28;20498;-62
2023/12/05 02:44:20;;;;;;;30.05;17.30;;;;;;;;;;5045569;28;20441;-61
2023/12/05 02:47:00;;;;;;;29.90;16.92;;;;;;;;;;5043666;28;20479;-61
2023/12/05 02:49:29;;;;;;;31.45;17.50;;;;;;;;;;5064219;28;20421;-61
2023/12/05 02:51:57;;;;;;;25.50;15.70;;;;;;;;;;5044283;28;20960;-61
2023/12/05 02:54:24;;;;;;;29.13;16.33;;;;;;;;;;5051886;28;20429;-61
2023/12/05 02:56:55;;;;;;;28.55;16.20;;;;;;;;;;5043587;28;21041;-61
2023/12/05 02:59:22;;;;;;;28.55;16.90;;;;;;;;;;5046503;28;20445;-61
2023/12/05 03:01:49;;;;;;;30.05;17.58;;;;;;;;;;5058296;28;20433;-61
2023/12/05 03:04:17;;;;;;;30.87;17.80;;;;;;;;;;5068433;28;20431;-61
2023/12/05 03:06:45;;;;;;;33.47;18.65;;;;;;;;;;5050799;28;20433;-61
2023/12/05 03:09:12;;;;;;;30.20;17.98;;;;;;;;;;5041967;28;20431;-61
2023/12/05 03:11:43;;;;;;;32.03;17.95;;;;;;;;;;5046361;28;20475;-61
2023/12/05 03:14:10;;;;;;;29.73;16.75;;;;;;;;;;5053235;28;20831;-61
2023/12/05 03:16:37;;;;;;;27.30;16.30;;;;;;;;;;5063890;28;21159;-61
2023/12/05 03:19:06;;;;;;;27.05;15.95;;;;;;;;;;5045249;28;20492;-61
2023/12/05 03:21:36;;;;;;;28.27;16.30;;;;;;;;;;5054753;28;20518;-61
2023/12/05 03:24:06;;;;;;;28.00;16.05;;;;;;;;;;5066361;28;20424;-61
2023/12/05 03:26:33;;;;;;;28.30;16.38;;;;;;;;;;5058151;28;20427;-61
2023/12/05 03:29:01;;;;;;;29.38;17.13;;;;;;;;;;5046169;28;20423;-61
2023/12/05 03:31:33;;;;;;;31.10;16.35;;;;;;;;;;5066078;28;20955;-61
2023/12/05 03:34:01;;;;;;;29.80;16.80;;;;;;;;;;5052277;28;20477;-61
2023/12/05 03:36:28;;;;;;;27.77;16.17;;;;;;;;;;5040819;28;20427;-61
2023/12/05 03:38:58;;;;;;;27.33;15.37;;;;;;;;;;5042929;28;20508;-62
2023/12/05 03:41:26;;;;;;;30.08;16.30;;;;;;;;;;5039728;28;20944;-62
2023/12/05 03:43:53;;;;;;;25.45;14.55;;;;;;;;;;5052474;28;20780;-62
2023/12/05 03:46:21;;;;;;;27.48;15.57;;;;;;;;;;5051259;28;20483;-62
2023/12/05 03:48:51;;;;;;;26.02;14.52;;;;;;;;;;5040009;28;20765;-62
2023/12/05 03:51:18;;;;;;;24.95;14.55;;;;;;;;;;5051305;28;20430;-62
2023/12/05 03:53:45;;;;;;;25.45;14.77;;;;;;;;;;5063719;28;20914;-62
2023/12/05 03:56:13;;;;;;;28.05;15.55;;;;;;;;;;5046479;28;20425;-62
2023/12/05 03:58:41;;;;;;;25.43;14.67;;;;;;;;;;5050462;28;20511;-62
2023/12/05 04:01:09;;;;;;;22.80;13.93;;;;;;;;;;5042723;28;20593;-62
2023/12/05 04:03:38;;;;;;;27.65;13.98;;;;;;;;;;5064856;28;20489;-62
2023/12/05 04:06:06;;;;;;;25.53;14.13;;;;;;;;;;5066720;28;20425;-62
2023/12/05 04:08:33;;;;;;;23.85;13.85;;;;;;;;;;5052097;28;20437;-62
2023/12/05 04:11:00;;;;;;;24.88;14.00;;;;;;;;;;5029228;28;20431;-62
2023/12/05 04:13:30;;;;;;;22.70;13.67;;;;;;;;;;5051187;28;20429;-62
2023/12/05 04:15:57;;;;;;;20.83;12.25;;;;;;;;;;5061426;28;20527;-62
2023/12/05 04:18:25;;;;;;;22.73;12.57;;;;;;;;;;5021249;28;20447;-62
2023/12/05 04:20:52;;;;;;;23.10;13.00;;;;;;;;;;5027948;28;20866;-62
2023/12/05 04:23:19;;;;;;;20.33;13.25;;;;;;;;;;5049902;28;20460;-63
2023/12/05 04:25:46;;;;;;;19.80;12.43;;;;;;;;;;5049629;28;20461;-63
2023/12/05 04:28:13;;;;;;;20.17;12.93;;;;;;;;;;5047450;28;20426;-63
2023/12/05 04:30:41;;;;;;;22.43;12.80;;;;;;;;;;5049338;28;21104;-63
2023/12/05 04:33:09;;;;;;;18.73;11.70;;;;;;;;;;5043524;28;20437;-63
2023/12/05 04:35:36;;;;;;;21.38;12.02;;;;;;;;;;5044967;28;20432;-63
2023/12/05 04:38:06;;;;;;;16.00;10.65;;;;;;;;;;5054883;28;20429;-63
2023/12/05 04:40:33;;;;;;;17.08;11.23;;;;;;;;;;5042958;28;20429;-63
2023/12/05 04:43:00;;;;;;;20.02;11.45;;;;;;;;;;5046471;28;20533;-63
2023/12/05 04:45:28;;;;;;;17.90;11.02;;;;;;;;;;5032801;28;21031;-64
2023/12/05 04:47:55;;;;;;;15.90;10.55;;;;;;;;;;5045612;28;20426;-64
2023/12/05 04:50:23;;;;;;;16.70;10.70;;;;;;;;;;5044874;28;21198;-63
2023/12/05 04:52:50;;;;;;;15.32;10.80;;;;;;;;;;5052283;28;20839;-64
2023/12/05 04:55:20;;;;;;;17.57;10.50;;;;;;;;;;5056213;28;20464;-63
2023/12/05 04:57:47;;;;;;;14.93;10.40;;;;;;;;;;5047401;28;20943;-63
2023/12/05 05:00:14;;;;;;;17.80;11.48;;;;;;;;;;5047968;28;20433;-64
2023/12/05 05:02:42;;;;;;;16.85;10.40;;;;;;;;;;5043941;28;20528;-63
2023/12/05 05:05:09;;;;;;;17.30;10.35;;;;;;;;;;5049373;28;20425;-63
2023/12/05 05:07:36;;;;;;;15.70;10.37;;;;;;;;;;5043446;28;20479;-63
2023/12/05 05:10:04;;;;;;;16.15;10.40;;;;;;;;;;5026196;28;20425;-63
2023/12/05 05:12:32;;;;;;;13.88;9.75;;;;;;;;;;5043727;28;20433;-64
2023/12/05 05:14:59;;;;;;;15.27;9.95;;;;;;;;;;5046941;28;20435;-63
2023/12/05 05:17:26;;;;;;;15.13;9.55;;;;;;;;;;5049556;28;20464;-64
2023/12/05 05:19:53;;;;;;;16.63;10.38;;;;;;;;;;5043241;28;20421;-63
2023/12/05 05:22:21;;;;;;;16.55;10.85;;;;;;;;;;5047916;28;20429;-63
2023/12/05 05:24:48;;;;;;;17.90;10.55;;;;;;;;;;5049208;28;21046;-63
2023/12/05 05:27:16;;;;;;;15.43;9.97;;;;;;;;;;5036768;28;20492;-63
2023/12/05 05:29:43;;;;;;;14.95;10.02;;;;;;;;;;5042168;28;20436;-63
2023/12/05 05:32:10;;;;;;;15.20;10.05;;;;;;;;;;5040311;28;20839;-63
2023/12/05 05:34:38;;;;;;;15.27;10.02;;;;;;;;;;5031950;28;20923;-63
2023/12/05 05:37:07;;;;;;;15.27;9.80;;;;;;;;;;5035180;28;20895;-63
2023/12/05 05:39:34;;;;;;;14.35;9.80;;;;;;;;;;5048288;28;20439;-63
2023/12/05 05:42:01;;;;;;;14.32;9.52;;;;;;;;;;5048022;28;20517;-63
2023/12/05 05:44:28;;;;;;;14.48;9.80;;;;;;;;;;5045931;28;20441;-63
2023/12/05 05:46:55;;;;;;;15.18;9.90;;;;;;;;;;5045098;28;20424;-63
2023/12/05 05:49:25;;;;;;;16.07;9.70;;;;;;;;;;5049865;28;20431;-63
2023/12/05 05:51:52;;;;;;;15.85;9.73;;;;;;;;;;5044851;28;20511;-63
2023/12/05 05:54:19;;;;;;;15.82;9.43;;;;;;;;;;5047957;28;20540;-63
2023/12/05 05:56:47;;;;;;;14.27;9.30;;;;;;;;;;5030595;28;20433;-63
2023/12/05 05:59:14;;;;;;;13.85;9.23;;;;;;;;;;5031586;28;20449;-63
2023/12/05 06:01:41;;;;;;;14.02;8.77;;;;;;;;;;5043980;28;20551;-63
2023/12/05 06:04:09;;;;;;;13.20;9.13;;;;;;;;;;5040212;28;20482;-63
2023/12/05 06:06:36;;;;;;;12.93;8.48;;;;;;;;;;5048835;28;20460;-63
2023/12/05 06:09:06;;;;;;;13.13;8.48;;;;;;;;;;5047098;28;20421;-63
2023/12/05 06:11:33;;;;;;;13.85;8.63;;;;;;;;;;5047675;28;20433;-63
2023/12/05 06:14:00;;;;;;;13.57;8.82;;;;;;;;;;5028810;28;20435;-63
2023/12/05 06:16:28;;;;;;;12.35;8.43;;;;;;;;;;5044114;28;20993;-63
2023/12/05 06:18:55;;;;;;;16.02;9.15;;;;;;;;;;5016987;28;20513;-63
2023/12/05 06:21:23;;;;;;;14.00;9.23;;;;;;;;;;5032712;28;20441;-63
2023/12/05 06:23:50;;;;;;;13.25;8.07;;;;;;;;;;5042315;28;20795;-63
2023/12/05 06:26:19;;;;;;;13.23;8.32;;;;;;;;;;5045556;28;20468;-64
2023/12/05 06:28:46;;;;;;;10.88;7.78;;;;;;;;;;5045990;28;20780;-63
2023/12/05 06:31:13;;;;;;;13.55;8.38;;;;;;;;;;5058980;28;21013;-63
2023/12/05 06:33:44;;;;;;;12.47;8.20;;;;;;;;;;5040560;28;20439;-63
2023/12/05 06:36:14;;;;;;;12.57;8.60;;;;;;;;;;5044643;28;20440;-63
2023/12/05 06:38:41;;;;;;;12.10;8.68;;;;;;;;;;5054928;28;20468;-64
2023/12/05 06:41:08;;;;;;;12.57;8.30;;;;;;;;;;5056219;28;20461;-64
2023/12/05 06:43:38;;;;;;;12.65;8.40;;;;;;;;;;5044782;28;20462;-63
2023/12/05 06:46:05;;;;;;;13.88;8.25;;;;;;;;;;5039846;28;20429;-63
2023/12/05 06:48:32;;;;;;;14.10;8.60;;;;;;;;;;5038862;28;20434;-63
2023/12/05 06:51:00;;;;;;;13.85;8.70;;;;;;;;;;5042540;28;20480;-64
2023/12/05 06:53:30;;;;;;;11.77;8.52;;;;;;;;;;5039295;28;20954;-64
2023/12/05 06:55:58;;;;;;;12.25;7.93;;;;;;;;;;5039891;28;20429;-64
2023/12/05 06:58:25;;;;;;;11.43;7.45;;;;;;;;;;5038749;28;20437;-64
2023/12/05 07:00:52;;;;;;;9.53;6.90;;;;;;;;;;5022908;28;20433;-64
2023/12/05 07:03:19;;;;;;;11.55;7.80;;;;;;;;;;5038919;28;20429;-65
2023/12/05 07:05:47;;;;;;;9.35;7.03;;;;;;;;;;5030604;28;20438;-65
2023/12/05 07:08:17;;;;;;;10.60;7.43;;;;;;;;;;5038156;28;20487;-65
2023/12/05 07:10:44;;;;;;;12.30;7.05;;;;;;;;;;5032431;28;20935;-65
2023/12/05 07:13:11;;;;;;;11.17;7.50;;;;;;;;;;5035439;28;20472;-66
2023/12/05 07:15:39;;;;;;;13.70;8.07;;;;;;;;;;5036105;28;20466;-65
2023/12/05 07:18:06;;;;;;;11.55;7.88;;;;;;;;;;5037134;28;20449;-65
2023/12/05 07:20:33;;;;;;;9.93;7.10;;;;;;;;;;5013764;28;20535;-65
2023/12/05 07:23:03;;;;;;;11.77;7.55;;;;;;;;;;5040018;28;20734;-65
2023/12/05 07:25:30;;;;;;;10.57;7.03;;;;;;;;;;5042784;28;20895;-66
2023/12/05 07:27:57;;;;;;;11.05;7.65;;;;;;;;;;5040845;28;20433;-66
2023/12/05 07:30:28;;;;;;;13.65;7.53;;;;;;;;;;5034839;28;20461;-65
2023/12/05 07:32:55;;;;;;;12.07;7.87;;;;;;;;;;5046790;28;20504;-66
2023/12/05 07:35:27;;;;;;;9.70;6.60;;;;;;;;;;5048715;28;20416;-66
2023/12/05 07:37:54;;;;;;;11.52;7.47;;;;;;;;;;5030738;28;20421;-66
2023/12/05 07:40:21;;;;;;;13.63;7.75;;;;;;;;;;5039407;28;21026;-66
2023/12/05 07:42:49;;;;;;;11.63;7.43;;;;;;;;;;5042016;28;20482;-66
2023/12/05 07:45:16;;;;;;;11.82;7.85;;;;;;;;;;5042437;28;20544;-66
2023/12/05 07:47:48;;;;;;;11.00;7.65;;;;;;;;;;5053687;28;20507;-66
2023/12/05 07:50:15;;;;;;;13.77;7.63;;;;;;;;;;5055153;28;20439;-67
2023/12/05 07:52:43;;;;;;;9.77;6.78;;;;;;;;;;5038141;28;20433;-67
2023/12/05 07:55:11;;;;;;;10.57;6.43;;;;;;;;;;5045856;28;20421;-67
2023/12/05 07:57:38;;;;;;;12.73;6.80;;;;;;;;;;5041019;28;20429;-67
2023/12/05 08:00:14;;;;;;;10.02;6.38;;;;;;;;;;5031626;28;20436;-68
2023/12/05 08:02:41;;;;;;;9.50;6.78;;;;;;;;;;5041304;28;21007;-67
2023/12/05 08:05:08;;;;;;;9.60;6.55;;;;;;;;;;5056232;28;20510;-68
2023/12/05 08:07:36;;;;;;;9.45;6.57;;;;;;;;;;5041029;28;20448;-68
2023/12/05 08:10:03;;;;;;;10.32;6.18;;;;;;;;;;5044442;28;20474;-68
2023/12/05 08:12:30;;;;;;;6.32;5.65;;;;;;;;;;5048134;28;20458;-68
2023/12/05 08:14:57;;;;;;;6.77;5.23;;;;;;;;;;5047362;28;20503;-68
2023/12/05 08:17:26;;;;;;;7.57;5.15;;;;;;;;;;5037920;28;20486;-68
2023/12/05 08:19:55;;;;;;;7.20;4.77;;;;;;;;;;5008417;28;20442;-68
2023/12/05 08:22:23;;;;;;;6.72;4.97;;;;;;;;;;5038720;28;20452;-68
2023/12/05 08:24:50;;;;;;;8.45;5.15;;;;;;;;;;5041789;28;20433;-69
2023/12/05 08:27:17;;;;;;;7.28;4.40;;;;;;;;;;5040116;28;20433;-69
2023/12/05 08:29:44;;;;;;;6.78;4.90;;;;;;;;;;5031091;28;20915;-69
2023/12/05 08:32:11;;;;;;;4.70;4.20;;;;;;;;;;5031414;28;20509;-69
2023/12/05 08:34:39;;;;;;;6.78;4.32;;;;;;;;;;5040783;28;20928;-70
2023/12/05 08:37:06;;;;;;;5.30;4.20;;;;;;;;;;5045598;28;20472;-69
2023/12/05 08:39:33;;;;;;;5.83;4.17;;;;;;;;;;5038851;28;20546;-70
2023/12/05 08:42:01;;;;;;;7.07;4.50;;;;;;;;;;5035274;28;20462;-70
2023/12/05 08:44:28;;;;;;;8.45;4.50;;;;;;;;;;5042230;28;20432;-70
2023/12/05 08:46:55;;;;;;;6.50;4.22;;;;;;;;;;5033803;28;20484;-70
2023/12/05 08:49:23;;;;;;;3.90;3.60;;;;;;;;;;5038524;28;20433;-70
2023/12/05 08:51:50;;;;;;;6.15;4.13;;;;;;;;;;5033160;28;20514;-71
2023/12/05 08:54:18;;;;;;;5.95;3.80;;;;;;;;;;5045007;28;20433;-70
2023/12/05 08:56:46;;;;;;;4.40;4.00;;;;;;;;;;5045945;28;20429;-71
2023/12/05 08:59:13;;;;;;;5.67;3.60;;;;;;;;;;5050563;28;20441;-71
2023/12/05 09:01:47;;;;;;;4.60;3.65;;;;;;;;;;5041251;28;20441;-71
2023/12/05 09:04:14;;;;;;;5.65;3.70;;;;;;;;;;5045158;28;20437;-71
2023/12/05 09:06:42;;;;;;;3.67;3.38;;;;;;;;;;5047376;28;20429;-71
2023/12/05 09:09:10;;;;;;;5.10;2.85;;;;;;;;;;5048786;28;20475;-71
2023/12/05 09:11:38;;;;;;;4.63;3.10;;;;;;;;;;5043025;28;20448;-71
2023/12/05 09:14:06;;;;;;;5.53;3.30;;;;;;;;;;5054858;28;20841;-72
2023/12/05 09:16:37;;;;;;;4.13;2.90;;;;;;;;;;5035481;28;20491;-72
2023/12/05 09:19:04;;;;;;;3.78;2.97;;;;;;;;;;5044203;28;20544;-72
2023/12/05 09:21:32;;;;;;;4.78;2.88;;;;;;;;;;5041989;28;20993;-72
2023/12/05 09:23:59;;;;;;;7.25;2.88;;;;;;;;;;5050566;28;20778;-73
2023/12/05 09:26:26;;;;;;;3.40;2.30;;;;;;;;;;5053373;28;20423;-72
2023/12/05 09:28:53;;;;;;;5.43;2.33;;;;;;;;;;5046983;28;20449;-72
2023/12/05 09:31:20;;;;;;;4.30;2.42;;;;;;;;;;5048112;28;20861;-72
2023/12/05 09:33:48;;;;;;;3.65;2.50;;;;;;;;;;5037868;28;20841;-72
2023/12/05 09:36:15;;;;;;;3.08;2.20;;;;;;;;;;5024666;28;20447;-72
2023/12/05 09:38:42;;;;;;;4.95;2.40;;;;;;;;;;5053419;28;20459;-73
2023/12/05 09:41:11;;;;;;;4.93;2.60;;;;;;;;;;5058491;28;20461;-72
2023/12/05 09:43:42;;;;;;;5.85;2.40;;;;;;;;;;5044617;28;20505;-73
2023/12/05 09:46:09;;;;;;;2.45;2.25;;;;;;;;;;5038688;28;20510;-74
2023/12/05 09:48:40;;;;;;;2.60;2.40;;;;;;;;;;5041057;28;20441;-75
2023/12/05 09:51:12;;;;;;;4.88;2.28;;;;;;;;;;5030351;28;20426;-76
2023/12/05 09:53:39;;;;;;;4.03;2.20;;;;;;;;;;5042990;28;20470;-76
2023/12/05 09:56:07;;;;;;;2.10;1.90;;;;;;;;;;5045803;28;20433;-76
2023/12/05 09:58:34;;;;;;;4.00;1.85;;;;;;;;;;5042854;28;20465;-77
2023/12/05 10:01:01;;;;;;;4.22;1.90;;;;;;;;;;5044011;28;20439;-79
2023/12/05 10:03:35;;;;;;;2.53;1.90;;;;;;;;;;5036334;28;20428;-80
2023/12/05 10:06:06;;;;;;;3.10;1.80;;;;;;;;;;5053913;28;20964;-81
2023/12/05 10:08:34;;;;;;;2.55;1.80;;;;;;;;;;5056130;28;20436;-81
2023/12/05 10:11:01;;;;;;;2.97;1.80;;;;;;;;;;5050042;28;20785;-80
2023/12/05 10:13:30;;;;;;;3.25;1.88;;;;;;;;;;5046899;28;20461;-80
2023/12/05 10:15:58;;;;;;;2.80;1.77;;;;;;;;;;5062061;28;20799;-81
2023/12/05 10:18:28;;;;;;;2.83;1.85;;;;;;;;;;5050247;28;20518;-81
2023/12/05 10:20:55;;;;;;;2.80;1.52;;;;;;;;;;5045523;28;20425;-81
2023/12/05 10:23:23;;;;;;;2.78;1.60;;;;;;;;;;5061309;28;20471;-80
2023/12/05 10:25:50;;;;;;;2.03;1.43;;;;;;;;;;5064094;28;20513;-79
2023/12/05 10:28:39;;;;;;;2.05;1.40;;;;;;;;;;5065067;28;20481;-80
2023/12/05 10:31:18;;;;;;;3.20;1.60;;;;;;;;;;5046818;28;20464;-79
2023/12/05 10:33:49;;;;;;;4.25;1.60;;;;;;;;;;5039940;28;20437;-78
2023/12/05 10:36:17;;;;;;;1.55;1.45;;;;;;;;;;5050432;28;20425;-77
2023/12/05 10:38:45;;;;;;;1.50;1.40;;;;;;;;;;5039902;28;20913;-75
2023/12/05 10:41:21;;;;;;;1.77;1.58;;;;;;;;;;5062580;28;20464;-76
2023/12/05 10:43:52;;;;;;;3.05;1.60;;;;;;;;;;5050495;28;20457;-75
2023/12/05 10:46:19;;;;;;;3.10;1.20;;;;;;;;;;5053432;28;20820;-75
2023/12/05 10:48:46;;;;;;;1.90;1.20;;;;;;;;;;5065512;28;20451;-74
2023/12/05 10:51:14;;;;;;;3.65;1.35;;;;;;;;;;5048801;28;20425;-73
2023/12/05 10:53:41;;;;;;;2.05;1.23;;;;;;;;;;5046191;28;20432;-72
2023/12/05 10:56:16;;;;;;;2.30;1.35;;;;;;;;;;5046877;28;20439;-73
2023/12/05 10:58:43;;;;;;;2.40;1.30;;;;;;;;;;5056630;28;20425;-72
2023/12/05 11:01:11;;;;;;;1.80;1.27;;;;;;;;;;5065857;28;20459;-71
2023/12/05 11:03:39;;;;;;;2.38;1.20;;;;;;;;;;5065160;28;20427;-70
2023/12/05 11:06:09;;;;;;;1.73;1.00;;;;;;;;;;5043914;28;20431;-69
2023/12/05 11:08:36;;;;;;;1.40;1.00;;;;;;;;;;5028392;28;20451;-70
2023/12/05 11:11:04;;;;;;;1.30;1.20;;;;;;;;;;5052689;28;20455;-69
2023/12/05 11:13:34;;;;;;;1.30;1.20;;;;;;;;;;5046345;28;21267;-68
2023/12/05 11:16:10;;;;;;;1.42;1.00;;;;;;;;;;5052759;28;20429;-69
2023/12/05 11:18:43;;;;;;;2.58;1.08;;;;;;;;;;5046662;28;20442;-69
2023/12/05 11:21:29;;;;;;;1.73;1.13;;;;;;;;;;5059176;28;20439;-68
2023/12/05 11:24:02;;;;;;;2.58;1.30;;;;;;;;;;5063801;28;20427;-68
2023/12/05 11:26:30;;;;;;;2.35;1.10;;;;;;;;;;5059535;28;20526;-68
2023/12/05 11:29:20;;;;;;;2.35;1.00;;;;;;;;;;5051258;28;20775;-68
2023/12/05 11:31:53;;;;;;;1.77;1.08;;;;;;;;;;5058080;28;20902;-68
2023/12/05 11:34:38;;;;;;;1.70;1.10;;;;;;;;;;5071456;28;20431;-67
2023/12/05 11:37:24;;;;;;;1.00;0.95;;;;;;;;;;5047652;28;21039;-67
2023/12/05 11:39:54;;;;;;;0.98;0.88;;;;;;;;;;5058919;28;20464;-67
2023/12/05 11:42:24;;;;;;;1.95;1.00;;;;;;;;;;5059392;28;20911;-67
2023/12/05 11:44:51;;;;;;;1.13;1.00;;;;;;;;;;5059286;28;20536;-67
2023/12/05 11:47:25;;;;;;;1.63;1.00;;;;;;;;;;5048661;28;20425;-67
2023/12/05 11:49:56;;;;;;;1.85;1.10;;;;;;;;;;5048684;28;20923;-67
2023/12/05 11:52:27;;;;;;;1.93;1.10;;;;;;;;;;5051584;28;20461;-67
2023/12/05 11:54:54;;;;;;;1.85;0.90;;;;;;;;;;5058320;28;20886;-66
2023/12/05 11:57:23;;;;;;;1.90;1.03;;;;;;;;;;5055780;28;20435;-66
2023/12/05 11:59:51;;;;;;;1.70;1.02;;;;;;;;;;5056688;28;20433;-66
2023/12/05 12:02:25;;;;;;;1.60;0.87;;;;;;;;;;5066017;28;20438;-66
2023/12/05 12:05:15;;;;;;;2.15;1.00;;;;;;;;;;5069906;28;20515;-66
2023/12/05 12:07:56;;;;;;;3.88;1.33;;;;;;;;;;5042047;28;20445;-67
2023/12/05 12:10:30;;;;;;;3.35;1.20;;;;;;;;;;5036565;28;20455;-67
2023/12/05 12:12:57;;;;;;;1.90;1.10;;;;;;;;;;5063328;28;20569;-67
2023/12/05 12:15:26;;;;;;;2.70;1.08;;;;;;;;;;5054367;28;20431;-67
2023/12/05 12:17:54;;;;;;;1.20;1.10;;;;;;;;;;5052987;28;20437;-67
2023/12/05 12:20:22;;;;;;;1.35;1.00;;;;;;;;;;5055500;28;20489;-67
2023/12/05 12:22:50;;;;;;;1.90;1.17;;;;;;;;;;5057368;28;20425;-68
2023/12/05 12:25:17;;;;;;;1.15;0.82;;;;;;;;;;5049071;28;20433;-68
2023/12/05 12:27:45;;;;;;;2.20;1.00;;;;;;;;;;5047237;28;20508;-68
2023/12/05 12:30:15;;;;;;;1.67;1.00;;;;;;;;;;5040006;28;20435;-68
2023/12/05 12:32:56;;;;;;;2.25;0.90;;;;;;;;;;5037998;28;20508;-68
2023/12/05 12:35:24;;;;;;;1.65;0.90;;;;;;;;;;5041766;28;20794;-69
2023/12/05 12:37:56;;;;;;;3.85;1.38;;;;;;;;;;5048551;28;20433;-68
2023/12/05 12:40:28;;;;;;;1.30;1.20;;;;;;;;;;5043485;28;20490;-68
2023/12/05 12:42:59;;;;;;;0.90;0.90;;;;;;;;;;5033797;28;20433;-68
2023/12/05 12:45:29;;;;;;;1.60;1.02;;;;;;;;;;5040590;28;20920;-68
2023/12/05 12:47:58;;;;;;;1.27;1.17;;;;;;;;;;5014567;28;20460;-68
2023/12/05 12:50:25;;;;;;;2.17;1.00;;;;;;;;;;5052196;28;20944;-69
2023/12/05 12:52:56;;;;;;;1.15;0.98;;;;;;;;;;5045130;28;20429;-69
2023/12/05 12:55:23;;;;;;;2.10;1.05;;;;;;;;;;5033897;28;20494;-69
2023/12/05 12:57:54;;;;;;;2.22;1.15;;;;;;;;;;5035849;28;20434;-69
2023/12/05 13:00:21;;;;;;;1.03;0.97;;;;;;;;;;5041369;28;20433;-68
2023/12/05 13:03:03;;;;;;;2.53;1.23;;;;;;;;;;5038331;28;20442;-68
2023/12/05 13:05:35;;;;;;;1.35;1.05;;;;;;;;;;5032658;28;20444;-68
2023/12/05 13:08:07;;;;;;;1.88;1.08;;;;;;;;;;5035535;28;20435;-68
2023/12/05 13:10:40;;;;;;;1.10;1.08;;;;;;;;;;5038952;28;20431;-69
2023/12/05 13:13:08;;;;;;;3.27;1.20;;;;;;;;;;5046806;28;20514;-69
2023/12/05 13:15:36;;;;;;;1.55;1.00;;;;;;;;;;5035399;28;20897;-69
2023/12/05 13:18:04;;;;;;;1.20;1.10;;;;;;;;;;5054044;28;20883;-70
2023/12/05 13:20:32;;;;;;;1.27;1.10;;;;;;;;;;5060450;28;20434;-69
2023/12/05 13:23:05;;;;;;;1.38;0.98;;;;;;;;;;5026789;28;20436;-70
2023/12/05 13:25:32;;;;;;;0.75;0.75;;;;;;;;;;5043665;28;20758;-69
2023/12/05 13:28:11;;;;;;;0.60;0.60;;;;;;;;;;5054782;28;20431;-70
2023/12/05 13:30:39;;;;;;;3.00;0.90;;;;;;;;;;5047239;28;20431;-70
2023/12/05 13:33:08;;;;;;;1.38;0.85;;;;;;;;;;5025239;28;20995;-70
2023/12/05 13:35:39;;;;;;;1.50;0.80;;;;;;;;;;5022334;28;20437;-73
2023/12/05 13:38:10;;;;;;;1.77;1.00;;;;;;;;;;5034219;28;20434;-70
2023/12/05 13:40:37;;;;;;;1.40;0.80;;;;;;;;;;5040358;28;20468;-70
2023/12/05 13:43:07;;;;;;;1.55;0.98;;;;;;;;;;5032906;28;21267;-70
2023/12/05 13:45:34;;;;;;;0.98;0.85;;;;;;;;;;5037264;28;20483;-70
2023/12/05 13:48:03;;;;;;;0.93;0.90;;;;;;;;;;5036150;28;20425;-71
2023/12/05 13:50:31;;;;;;;1.50;0.90;;;;;;;;;;5031394;28;20564;-70
2023/12/05 13:52:59;;;;;;;1.70;1.10;;;;;;;;;;5032162;28;20441;-70
2023/12/05 13:55:26;;;;;;;0.70;0.70;;;;;;;;;;5044732;28;20516;-70
2023/12/05 13:57:53;;;;;;;1.60;0.80;;;;;;;;;;5033277;28;20511;-71
2023/12/05 14:00:23;;;;;;;0.50;0.50;;;;;;;;;;5049920;28;20436;-71
2023/12/05 14:02:51;;;;;;;1.10;0.70;;;;;;;;;;5039922;28;20462;-72
2023/12/05 14:05:18;;;;;;;0.60;0.60;;;;;;;;;;5040336;28;20431;-72
2023/12/05 14:07:45;;;;;;;2.35;1.08;;;;;;;;;;5043795;28;20998;-72
2023/12/05 14:10:12;;;;;;;0.50;0.50;;;;;;;;;;5036948;28;20453;-72
2023/12/05 14:12:40;;;;;;;0.70;0.40;;;;;;;;;;5042024;28;20425;-73
2023/12/05 14:15:07;;;;;;;1.65;0.50;;;;;;;;;;5044570;28;20429;-73
2023/12/05 14:17:37;;;;;;;0.70;0.60;;;;;;;;;;5042545;28;20604;-74
2023/12/05 14:20:06;;;;;;;1.00;0.38;;;;;;;;;;5045251;28;20429;-73
2023/12/05 14:22:34;;;;;;;0.30;0.30;;;;;;;;;;5044896;28;20517;-73
2023/12/05 14:25:01;;;;;;;1.20;0.50;;;;;;;;;;5045539;28;20488;-73
2023/12/05 14:27:28;;;;;;;0.30;0.30;;;;;;;;;;5053462;28;20435;-74
2023/12/05 14:29:55;;;;;;;0.53;0.30;;;;;;;;;;5041086;28;20481;-75
2023/12/05 14:32:23;;;;;;;1.10;0.40;;;;;;;;;;5054967;28;20436;-75
2023/12/05 14:34:50;;;;;;;0.25;0.25;;;;;;;;;;5041081;28;20479;-75
2023/12/05 14:37:18;;;;;;;0.60;0.30;;;;;;;;;;5041545;28;20427;-75
2023/12/05 14:39:46;;;;;;;0.43;0.25;;;;;;;;;;5044712;28;20427;-75